Strona główna
METAR-TAF:

METAR-TAF

Lotnisko :

Kunming, Chiny

Szerokość geograficzna: 25-01N, Długość geograficzna: 102-41E, wysokość: 1892 m

Aktualna obserwacja pogody

Raport powstał 18 minut temu, godzina 23:00 UTC
Wiatr 12 kt od zachodnio-południowy zachód
Temperatura 9°C
Wilgotność 61%
Ciśnienie 1022 hPa
Widzialność 10 km lub więcej
Rozproszone chmury na wysokości 4300 ft

METAR: ZPPP 192300Z 24006MPS 9999 SCT043 09/02 Q1022 NOSIG

czas: 07:18 (23:18 UTC)

Prognoza

Raport powstał 10 godziny i 14 minut temu, godzina 13:04 UTC
Prognoza ważna od 19 godzina 18 UTC do 20 godzina 18 UTC
Wiatr 14 kt od południowy zachód
Widzialność 10 km lub więcej
Mało chmury na wysokości 2600 ft
Stopniowe zmiany
od 20 godzina 02 UTC do 20 godzina 03 UTC
Wiatr 23 kt od południowy zachód w porywach dochodzący do 33 kt
Stopniowe zmiany
od 20 godzina 11 UTC do 20 godzina 12 UTC
Wiatr 14 kt od południowy zachód

TAF: ZPPP 191304Z 1918/2018 23007MPS 9999 FEW026 TX19/2008Z TN06/1923Z BECMG 2002/2003 23012G17MPS BECMG 2011/2012 23007MPS

Obserwacja i prognoza pogody dla ponad 4000 lotnisk (raport METAR i TAF).

Dostępne stacje oznaczono żółtymi i czerwonymi punktami na mapie.

Najedź kursorem aby zobaczyć nazwę stacji.

Kliknij aby zobaczyć obserwacje i prognozy pogody.

Aby zmienić mapę: kliknij na zielony przycisk z czarnym krzyżykiem, aby powiększyć; na zielony przycisk z myślnikiem, aby pomniejszyć; na zielone strzałki, aby przejść do map sąsiednich.


METAR-TAF: